createdAt,value
2022-11-28T00:01:35.895Z,99.44
2022-11-28T00:04:04.350Z,99.62
2022-11-28T00:06:32.925Z,99.43
2022-11-28T00:09:01.966Z,100.00
2022-11-28T00:11:31.633Z,99.57
2022-11-28T00:13:59.864Z,100.00
2022-11-28T00:16:28.274Z,99.99
2022-11-28T00:18:56.826Z,99.90
2022-11-28T00:21:25.132Z,100.00
2022-11-28T00:23:53.507Z,100.00
2022-11-28T00:26:24.316Z,100.00
2022-11-28T00:28:54.503Z,100.00
2022-11-28T00:31:24.308Z,100.00
2022-11-28T00:33:52.621Z,100.00
2022-11-28T00:36:21.691Z,100.00
2022-11-28T00:38:50.902Z,100.00
2022-11-28T00:41:20.603Z,100.00
2022-11-28T00:43:50.200Z,100.00
2022-11-28T00:46:21.080Z,100.00
2022-11-28T00:48:50.192Z,100.00
2022-11-28T00:51:20.417Z,100.00
2022-11-28T00:53:50.332Z,100.00
2022-11-28T00:56:20.171Z,100.00
2022-11-28T00:58:49.925Z,100.00
2022-11-28T01:01:22.615Z,100.00
2022-11-28T01:03:52.202Z,100.00
2022-11-28T01:06:27.129Z,100.00
2022-11-28T01:08:56.010Z,100.00
2022-11-28T01:11:24.237Z,100.00
2022-11-28T01:13:52.501Z,100.00
2022-11-28T01:16:22.255Z,100.00
2022-11-28T01:18:50.557Z,99.79
2022-11-28T01:21:18.864Z,99.73
2022-11-28T01:23:47.304Z,99.28
2022-11-28T01:26:18.172Z,99.51
2022-11-28T01:28:46.583Z,99.50
2022-11-28T01:31:16.949Z,99.90
2022-11-28T01:33:46.633Z,99.44
2022-11-28T01:36:15.307Z,99.49
2022-11-28T01:38:43.838Z,98.64
2022-11-28T01:41:13.221Z,98.67
2022-11-28T01:44:06.243Z,99.06
2022-11-28T01:46:35.279Z,99.40
2022-11-28T01:49:09.285Z,98.70
2022-11-28T01:51:37.677Z,98.61
2022-11-28T01:54:06.454Z,98.92
2022-11-28T01:56:41.569Z,98.24
2022-11-28T01:59:11.144Z,98.03
2022-11-28T02:01:39.621Z,97.74
2022-11-28T02:04:10.822Z,98.21
2022-11-28T02:06:39.068Z,98.66
2022-11-28T02:09:10.717Z,98.37
2022-11-28T02:11:59.004Z,97.48
2022-11-28T02:14:44.716Z,97.47
2022-11-28T02:17:20.490Z,97.71
2022-11-28T02:20:22.631Z,98.37
2022-11-28T02:22:57.279Z,98.10
2022-11-28T02:25:55.143Z,98.35
2022-11-28T02:28:50.670Z,98.06
2022-11-28T02:31:29.246Z,98.42
2022-11-28T02:34:01.414Z,97.84
2022-11-28T02:36:32.072Z,98.41
2022-11-28T02:39:06.445Z,98.56
2022-11-28T02:41:36.561Z,98.04
2022-11-28T02:44:12.828Z,97.99
2022-11-28T02:46:46.966Z,97.96
2022-11-28T02:49:20.043Z,98.21
2022-11-28T02:51:51.475Z,97.84
2022-11-28T02:54:20.158Z,98.32
2022-11-28T02:56:49.438Z,98.05
2022-11-28T02:59:31.567Z,98.17
2022-11-28T03:02:00.917Z,98.08
2022-11-28T03:04:35.223Z,97.88
2022-11-28T03:07:10.224Z,97.79
2022-11-28T03:09:56.373Z,97.70
2022-11-28T03:12:30.268Z,98.41
2022-11-28T03:15:00.600Z,97.80
2022-11-28T03:17:39.777Z,98.43
2022-11-28T03:20:16.814Z,97.28
2022-11-28T03:22:57.091Z,98.10
2022-11-28T03:25:30.725Z,97.58
2022-11-28T03:28:01.855Z,96.95
2022-11-28T03:30:33.638Z,97.30
2022-11-28T03:33:02.997Z,97.20
2022-11-28T03:35:37.438Z,97.52
2022-11-28T03:38:09.322Z,97.73
2022-11-28T03:40:42.463Z,97.98
2022-11-28T03:43:12.858Z,97.33
2022-11-28T03:45:43.653Z,97.54
2022-11-28T03:48:13.660Z,97.07
2022-11-28T03:50:45.545Z,96.62
2022-11-28T03:53:17.629Z,97.50
2022-11-28T03:55:50.286Z,96.96
2022-11-28T03:58:22.869Z,97.36
2022-11-28T04:01:00.195Z,96.85
2022-11-28T04:03:36.160Z,97.33
2022-11-28T04:06:09.960Z,97.35
2022-11-28T04:08:40.575Z,96.62
2022-11-28T04:11:10.690Z,97.09
2022-11-28T04:13:42.997Z,96.59
2022-11-28T04:16:15.541Z,96.50
2022-11-28T04:18:50.578Z,96.93
2022-11-28T04:21:22.951Z,96.67
2022-11-28T04:23:52.653Z,96.75
2022-11-28T04:26:24.288Z,96.98
2022-11-28T04:28:53.934Z,96.75
2022-11-28T04:31:24.018Z,96.40
2022-11-28T04:33:57.288Z,96.23
2022-11-28T04:36:27.504Z,96.45
2022-11-28T04:38:57.632Z,96.83
2022-11-28T04:41:28.584Z,95.83
2022-11-28T04:44:02.152Z,96.44
2022-11-28T04:46:34.514Z,95.96
2022-11-28T04:49:02.764Z,96.44
2022-11-28T04:51:37.540Z,95.22
2022-11-28T04:54:09.008Z,96.30
2022-11-28T04:56:40.509Z,95.58
2022-11-28T04:59:09.175Z,96.05
2022-11-28T05:01:40.106Z,95.67
2022-11-28T05:04:08.722Z,95.48
2022-11-28T05:06:38.412Z,95.89
2022-11-28T05:09:06.808Z,95.58
2022-11-28T05:11:35.171Z,95.27
2022-11-28T05:14:03.421Z,96.14
2022-11-28T05:16:31.819Z,96.45
2022-11-28T05:19:00.319Z,95.42
2022-11-28T05:21:28.592Z,95.67
2022-11-28T05:23:58.257Z,95.79
2022-11-28T05:26:26.491Z,95.74
2022-11-28T05:28:55.227Z,96.00
2022-11-28T05:31:23.497Z,95.41
2022-11-28T05:33:51.899Z,95.03
2022-11-28T05:36:20.104Z,95.29
2022-11-28T05:38:48.432Z,95.39
2022-11-28T05:41:22.028Z,95.18
2022-11-28T05:43:50.361Z,95.37
2022-11-28T05:46:19.324Z,95.89
2022-11-28T05:48:48.007Z,95.98
2022-11-28T05:51:16.237Z,96.34
2022-11-28T05:53:44.545Z,95.14
2022-11-28T05:56:15.163Z,95.11
2022-11-28T05:58:44.939Z,95.09
2022-11-28T06:01:14.748Z,95.25
2022-11-28T06:03:43.531Z,95.36
2022-11-28T06:06:14.025Z,95.93
2022-11-28T06:08:42.466Z,96.24
2022-11-28T06:11:11.256Z,96.14
2022-11-28T06:13:39.629Z,96.18
2022-11-28T06:16:11.073Z,95.83
2022-11-28T06:18:39.375Z,95.74
2022-11-28T06:21:09.579Z,96.40
2022-11-28T06:23:38.700Z,95.50
2022-11-28T06:26:07.877Z,96.09
2022-11-28T06:28:36.299Z,95.40
2022-11-28T06:31:04.933Z,95.88
2022-11-28T06:33:34.572Z,95.33
2022-11-28T06:36:09.101Z,95.12
2022-11-28T06:38:37.311Z,95.42
2022-11-28T06:41:07.574Z,95.43
2022-11-28T06:43:35.888Z,95.36
2022-11-28T06:46:04.169Z,95.07
2022-11-28T06:48:32.528Z,95.95
2022-11-28T06:51:05.442Z,96.10
2022-11-28T06:53:34.332Z,95.45
2022-11-28T06:56:06.385Z,95.09
2022-11-28T06:58:35.064Z,95.69
2022-11-28T07:01:11.841Z,94.65
2022-11-28T07:03:40.724Z,94.58
2022-11-28T07:06:10.760Z,94.88
2022-11-28T07:08:39.101Z,95.12
2022-11-28T07:11:12.802Z,96.07
2022-11-28T07:13:41.644Z,94.90
2022-11-28T07:16:12.066Z,94.51
2022-11-28T07:18:40.364Z,94.73
2022-11-28T07:21:10.848Z,95.27
2022-11-28T07:23:39.385Z,94.86
2022-11-28T07:26:08.141Z,93.65
2022-11-28T07:28:36.840Z,93.82
2022-11-28T07:31:07.112Z,93.97
2022-11-28T07:33:36.538Z,94.49
2022-11-28T07:36:06.914Z,94.54
2022-11-28T07:38:36.523Z,93.46
2022-11-28T07:41:05.509Z,93.45
2022-11-28T07:43:33.821Z,93.88
2022-11-28T07:46:06.163Z,92.99
2022-11-28T07:48:34.719Z,93.06
2022-11-28T07:51:07.033Z,92.99
2022-11-28T07:53:36.973Z,92.98
2022-11-28T07:56:05.471Z,93.62
2022-11-28T07:58:33.763Z,92.94
2022-11-28T08:01:02.248Z,92.95
2022-11-28T08:03:30.442Z,92.35
2022-11-28T08:06:03.064Z,92.43
2022-11-28T08:08:31.801Z,92.47
2022-11-28T08:11:03.054Z,92.61
2022-11-28T08:13:31.441Z,91.91
2022-11-28T08:15:59.751Z,93.24
2022-11-28T08:18:27.972Z,92.37
2022-11-28T08:21:04.914Z,92.33
2022-11-28T08:23:34.503Z,91.57
2022-11-28T08:26:04.828Z,91.71
2022-11-28T08:28:33.450Z,91.99
2022-11-28T08:31:04.270Z,90.59
2022-11-28T08:33:32.576Z,90.55
2022-11-28T08:36:00.795Z,91.24
2022-11-28T08:38:29.102Z,89.98
2022-11-28T08:41:03.876Z,89.77
2022-11-28T08:43:32.322Z,89.79
2022-11-28T08:46:00.517Z,89.63
2022-11-28T08:48:29.549Z,89.53
2022-11-28T08:50:58.425Z,89.63
2022-11-28T08:53:26.621Z,89.29
2022-11-28T08:55:55.073Z,89.65
2022-11-28T08:58:24.800Z,89.01
2022-11-28T09:00:53.444Z,89.28
2022-11-28T09:03:21.952Z,88.55
2022-11-28T09:05:50.377Z,87.98
2022-11-28T09:08:20.384Z,88.50
2022-11-28T09:10:49.156Z,88.60
2022-11-28T09:13:18.086Z,88.35
2022-11-28T09:15:51.253Z,88.08
2022-11-28T09:18:21.015Z,88.52
2022-11-28T09:20:49.438Z,88.48
2022-11-28T09:23:17.717Z,87.85
2022-11-28T09:25:46.042Z,88.50
2022-11-28T09:28:14.216Z,88.55
2022-11-28T09:30:42.428Z,89.19
2022-11-28T09:33:13.682Z,88.64
2022-11-28T09:35:41.956Z,88.44
2022-11-28T09:38:12.976Z,87.83
2022-11-28T09:40:43.882Z,86.94
2022-11-28T09:43:16.663Z,86.92
2022-11-28T09:45:46.066Z,87.63
2022-11-28T09:48:26.622Z,87.45
2022-11-28T09:50:59.084Z,87.05
2022-11-28T09:53:31.631Z,86.43
2022-11-28T09:56:01.765Z,87.02
2022-11-28T09:58:35.452Z,87.23
2022-11-28T10:01:16.975Z,86.56
2022-11-28T10:03:53.153Z,86.50
2022-11-28T10:06:24.310Z,87.23
2022-11-28T10:09:04.140Z,86.67
2022-11-28T10:11:41.096Z,86.65
2022-11-28T10:14:23.468Z,86.45
2022-11-28T10:16:58.881Z,86.87
2022-11-28T10:19:53.357Z,86.51
2022-11-28T10:22:24.424Z,86.91
2022-11-28T10:24:55.534Z,87.54
2022-11-28T10:27:27.211Z,86.97
2022-11-28T10:30:00.132Z,86.82
2022-11-28T10:32:33.409Z,86.67
2022-11-28T10:35:06.083Z,85.55
2022-11-28T10:37:37.181Z,87.00
2022-11-28T10:40:17.932Z,87.02
2022-11-28T10:42:49.991Z,87.64
2022-11-28T10:45:23.805Z,86.88
2022-11-28T10:48:38.674Z,87.25
2022-11-28T10:51:09.948Z,87.10
2022-11-28T10:53:43.253Z,88.17
2022-11-28T10:56:14.123Z,87.53
2022-11-28T10:58:48.769Z,87.89
2022-11-28T11:01:17.127Z,89.04
2022-11-28T11:03:45.598Z,88.49
2022-11-28T11:06:16.325Z,88.60
2022-11-28T11:08:46.947Z,88.59
2022-11-28T11:11:24.512Z,88.85
2022-11-28T11:13:58.604Z,88.55
2022-11-28T11:16:27.149Z,88.15
2022-11-28T11:18:56.412Z,88.14
2022-11-28T11:21:27.664Z,88.73
2022-11-28T11:24:14.505Z,89.47
2022-11-28T11:26:45.368Z,88.66
2022-11-28T11:29:22.283Z,88.97
2022-11-28T11:31:53.004Z,88.78
2022-11-28T11:34:22.718Z,89.86
2022-11-28T11:36:53.521Z,89.67
2022-11-28T11:39:24.004Z,90.44
2022-11-28T11:41:53.956Z,89.80
2022-11-28T11:44:34.368Z,89.57
2022-11-28T11:47:05.403Z,89.95
2022-11-28T11:49:35.618Z,89.03
2022-11-28T11:52:07.314Z,88.82
2022-11-28T11:54:35.522Z,89.57
2022-11-28T11:57:31.235Z,89.29
2022-11-28T11:59:55.138Z,90.27
2022-11-28T12:02:26.631Z,91.17
2022-11-28T12:05:02.567Z,89.93
2022-11-28T12:07:39.064Z,90.11
2022-11-28T12:10:11.248Z,90.59
2022-11-28T12:12:40.368Z,90.19
2022-11-28T12:15:14.709Z,90.59
2022-11-28T12:17:50.006Z,90.04
2022-11-28T12:20:39.436Z,89.50
2022-11-28T12:23:17.715Z,90.63
2022-11-28T12:25:49.899Z,90.80
2022-11-28T12:28:29.481Z,90.75
2022-11-28T12:31:06.830Z,89.92
2022-11-28T12:33:43.996Z,90.37
2022-11-28T12:36:18.356Z,90.32
2022-11-28T12:39:05.077Z,89.95
2022-11-28T12:41:47.720Z,89.86
2022-11-28T12:44:23.422Z,90.26
2022-11-28T12:46:57.909Z,90.14
2022-11-28T12:49:34.219Z,90.06
2022-11-28T12:52:08.594Z,88.78
2022-11-28T12:54:47.107Z,88.65
2022-11-28T12:57:23.109Z,89.15
2022-11-28T12:59:54.988Z,89.82
2022-11-28T13:02:31.088Z,89.39
2022-11-28T13:05:16.840Z,89.26
2022-11-28T13:07:55.015Z,87.85
2022-11-28T13:10:28.446Z,88.77
2022-11-28T13:13:00.020Z,88.54
2022-11-28T13:15:40.968Z,88.05
2022-11-28T13:18:18.162Z,88.11
2022-11-28T13:20:50.835Z,88.56
2022-11-28T13:23:22.132Z,88.47
2022-11-28T13:25:54.694Z,88.55
2022-11-28T13:28:26.469Z,88.25
2022-11-28T13:30:57.803Z,88.71
2022-11-28T13:33:38.413Z,89.30
2022-11-28T13:36:09.229Z,90.15
2022-11-28T13:39:08.221Z,89.39
2022-11-28T13:42:10.099Z,89.76
2022-11-28T13:44:36.647Z,90.19
2022-11-28T13:47:15.613Z,90.03
2022-11-28T13:49:43.929Z,90.09
2022-11-28T13:52:34.239Z,90.39
2022-11-28T13:55:02.602Z,90.88
2022-11-28T13:57:38.417Z,90.70
2022-11-28T14:00:14.893Z,90.76
2022-11-28T14:02:46.209Z,91.17
2022-11-28T14:05:33.339Z,91.87
2022-11-28T14:08:02.247Z,92.46
2022-11-28T14:10:59.487Z,92.20
2022-11-28T14:13:52.314Z,93.28
2022-11-28T14:16:30.199Z,93.19
2022-11-28T14:19:06.925Z,93.56
2022-11-28T14:21:46.360Z,92.06
2022-11-28T14:24:21.659Z,91.89
2022-11-28T14:26:58.748Z,91.54
2022-11-28T14:29:34.008Z,91.68
2022-11-28T14:34:51.096Z,91.37
2022-11-28T14:37:38.324Z,91.56
2022-11-28T14:40:47.263Z,90.59
2022-11-28T14:43:30.058Z,91.30
2022-11-28T14:46:35.310Z,90.74
2022-11-28T14:49:22.888Z,91.86
2022-11-28T14:52:37.689Z,90.86
2022-11-28T14:55:05.025Z,90.58
2022-11-28T14:57:36.137Z,90.81
2022-11-28T15:00:08.202Z,90.45
2022-11-28T15:02:52.851Z,90.59
2022-11-28T15:05:32.298Z,91.40
2022-11-28T15:08:17.326Z,90.84
2022-11-28T15:10:51.716Z,90.68
2022-11-28T15:13:32.592Z,91.40
2022-11-28T15:16:01.137Z,91.39
2022-11-28T15:18:31.299Z,91.01
2022-11-28T15:21:03.691Z,91.32
2022-11-28T15:23:33.637Z,90.64
2022-11-28T15:26:03.614Z,90.62
2022-11-28T15:28:35.631Z,90.35
2022-11-28T15:31:05.955Z,90.38
2022-11-28T15:33:34.848Z,91.17
2022-11-28T15:36:10.997Z,91.15
2022-11-28T15:38:39.809Z,90.35
2022-11-28T15:41:08.090Z,91.35
2022-11-28T15:43:37.759Z,90.59
2022-11-28T15:46:08.122Z,91.06
2022-11-28T15:48:40.182Z,90.64
2022-11-28T15:51:20.186Z,90.44
2022-11-28T15:53:48.546Z,89.95
2022-11-28T15:56:17.340Z,91.48
2022-11-28T15:58:47.827Z,90.98
2022-11-28T16:01:20.731Z,90.63
2022-11-28T16:03:53.464Z,90.53
2022-11-28T16:06:25.194Z,90.88
2022-11-28T16:08:55.408Z,91.35
2022-11-28T16:11:25.940Z,90.00
2022-11-28T16:13:55.470Z,90.85
2022-11-28T16:16:26.432Z,90.66
2022-11-28T16:18:58.732Z,91.31
2022-11-28T16:21:31.701Z,90.50
2022-11-28T16:24:00.848Z,91.08
2022-11-28T16:26:32.515Z,90.36
2022-11-28T16:29:04.805Z,90.67
2022-11-28T16:31:33.664Z,91.32
2022-11-28T16:34:03.003Z,91.76
2022-11-28T16:36:36.660Z,91.82
2022-11-28T16:39:07.834Z,91.50
2022-11-28T16:41:36.844Z,91.12
2022-11-28T16:44:07.483Z,90.80
2022-11-28T16:46:37.966Z,91.35
2022-11-28T16:49:09.245Z,91.88
2022-11-28T16:51:41.043Z,91.49
2022-11-28T16:54:33.139Z,91.14
2022-11-28T16:57:14.838Z,91.66
2022-11-28T16:59:43.949Z,92.01
2022-11-28T17:02:17.333Z,92.13
2022-11-28T17:04:45.985Z,92.13
2022-11-28T17:07:17.603Z,91.64
2022-11-28T17:09:47.042Z,91.71
2022-11-28T17:12:20.409Z,92.11
2022-11-28T17:14:48.688Z,92.25
2022-11-28T17:17:18.160Z,92.61
2022-11-28T17:19:46.822Z,91.73
2022-11-28T17:22:18.819Z,91.43
2022-11-28T17:24:47.966Z,91.64
2022-11-28T17:27:16.707Z,90.75
2022-11-28T17:29:45.198Z,90.68
2022-11-28T17:32:14.459Z,89.89
2022-11-28T17:34:43.618Z,90.28
2022-11-28T17:37:12.366Z,90.52
2022-11-28T17:40:02.766Z,90.34
2022-11-28T17:42:32.188Z,89.98
2022-11-28T17:45:00.513Z,89.80
2022-11-28T17:47:30.644Z,90.04
2022-11-28T17:49:58.964Z,90.17
2022-11-28T17:52:30.433Z,89.93
2022-11-28T17:55:06.896Z,89.45
2022-11-28T17:57:35.646Z,89.81
2022-11-28T18:00:06.711Z,89.99
2022-11-28T18:02:35.277Z,89.80
2022-11-28T18:05:03.813Z,90.58
2022-11-28T18:07:32.384Z,90.48
2022-11-28T18:10:02.089Z,90.54
2022-11-28T18:12:32.993Z,89.89
2022-11-28T18:15:02.345Z,89.94
2022-11-28T18:17:33.797Z,90.19
2022-11-28T18:20:03.614Z,90.44
2022-11-28T18:22:32.392Z,90.50
2022-11-28T18:25:02.314Z,90.05
2022-11-28T18:27:32.141Z,90.18
2022-11-28T18:30:00.464Z,90.16
2022-11-28T18:32:28.938Z,90.10
2022-11-28T18:34:57.255Z,89.76
2022-11-28T18:37:25.548Z,90.00
2022-11-28T18:39:54.244Z,90.76
2022-11-28T18:42:23.961Z,89.94
2022-11-28T18:44:52.165Z,90.51
2022-11-28T18:47:20.840Z,90.71
2022-11-28T18:49:49.317Z,90.81
2022-11-28T18:52:17.722Z,91.08
2022-11-28T18:54:46.350Z,90.60
2022-11-28T18:57:15.288Z,90.98
2022-11-28T18:59:52.887Z,91.32
2022-11-28T19:02:23.184Z,91.61
2022-11-28T19:04:51.756Z,91.68
2022-11-28T19:07:20.176Z,91.53
2022-11-28T19:09:48.609Z,92.03
2022-11-28T19:12:16.980Z,91.41
2022-11-28T19:14:46.761Z,92.08
2022-11-28T19:17:15.228Z,92.11
2022-11-28T19:19:44.363Z,92.14
2022-11-28T19:22:13.194Z,92.78
2022-11-28T19:24:41.688Z,92.75
2022-11-28T19:27:14.216Z,92.17
2022-11-28T19:29:43.420Z,92.31
2022-11-28T19:32:13.637Z,92.45
2022-11-28T19:34:42.094Z,91.83
2022-11-28T19:37:10.488Z,92.14
2022-11-28T19:39:38.965Z,92.25
2022-11-28T19:42:10.080Z,92.04
2022-11-28T19:44:38.418Z,92.42
2022-11-28T19:47:06.975Z,92.57
2022-11-28T19:49:36.727Z,91.82
2022-11-28T19:52:05.457Z,92.44
2022-11-28T19:54:35.027Z,92.81
2022-11-28T19:57:03.549Z,92.56
2022-11-28T19:59:31.927Z,93.27
2022-11-28T20:02:01.110Z,93.66
2022-11-28T20:04:29.671Z,92.98
2022-11-28T20:06:59.345Z,93.31
2022-11-28T20:09:27.611Z,94.18
2022-11-28T20:11:55.912Z,94.37
2022-11-28T20:14:24.180Z,93.90
2022-11-28T20:16:53.172Z,94.13
2022-11-28T20:19:21.602Z,93.82
2022-11-28T20:21:49.870Z,94.29
2022-11-28T20:24:19.565Z,94.21
2022-11-28T20:26:48.359Z,94.63
2022-11-28T20:29:18.910Z,93.72
2022-11-28T20:31:48.928Z,95.04
2022-11-28T20:34:18.565Z,94.68
2022-11-28T20:36:47.405Z,94.64
2022-11-28T20:39:16.697Z,94.58
2022-11-28T20:41:46.597Z,94.60
2022-11-28T20:44:14.814Z,94.69
2022-11-28T20:46:44.230Z,93.73
2022-11-28T20:49:12.594Z,93.62
2022-11-28T20:51:41.085Z,94.19
2022-11-28T20:54:09.601Z,93.75
2022-11-28T20:57:05.010Z,94.13
2022-11-28T20:59:29.848Z,93.99
2022-11-28T21:01:58.080Z,94.59
2022-11-28T21:04:26.354Z,94.32
2022-11-28T21:06:54.645Z,93.99
2022-11-28T21:09:23.447Z,94.34
2022-11-28T21:11:59.589Z,94.71
2022-11-28T21:14:30.292Z,94.31
2022-11-28T21:16:59.642Z,95.00
2022-11-28T21:19:27.928Z,94.40
2022-11-28T21:21:56.297Z,94.77
2022-11-28T21:24:24.567Z,94.31
2022-11-28T21:26:54.351Z,94.76
2022-11-28T21:29:24.204Z,94.38
2022-11-28T21:31:54.865Z,94.24
2022-11-28T21:34:23.336Z,94.45
2022-11-28T21:36:51.774Z,93.87
2022-11-28T21:39:22.141Z,93.53
2022-11-28T21:41:51.406Z,93.04
2022-11-28T21:44:19.731Z,93.27
2022-11-28T21:46:48.083Z,93.55
2022-11-28T21:49:17.765Z,93.07
2022-11-28T21:51:46.134Z,92.82
2022-11-28T21:54:14.495Z,93.75
2022-11-28T21:56:42.812Z,93.68
2022-11-28T21:59:11.124Z,93.79
2022-11-28T22:01:40.292Z,93.56
2022-11-28T22:04:08.998Z,93.67
2022-11-28T22:06:38.728Z,93.00
2022-11-28T22:09:09.453Z,93.47
2022-11-28T22:11:38.805Z,93.64
2022-11-28T22:14:07.271Z,93.75
2022-11-28T22:16:35.731Z,93.75
2022-11-28T22:19:04.199Z,94.29
2022-11-28T22:24:23.030Z,92.45
2022-11-28T22:26:51.455Z,92.63
2022-11-28T22:29:19.921Z,93.24
2022-11-28T22:31:48.322Z,92.06
2022-11-28T22:34:16.841Z,92.73
2022-11-28T22:36:45.163Z,93.11
2022-11-28T22:39:13.475Z,93.14
2022-11-28T22:41:43.048Z,92.24
2022-11-28T22:44:11.932Z,93.28
2022-11-28T22:46:40.388Z,93.27
2022-11-28T22:49:08.626Z,92.70
2022-11-28T22:51:37.455Z,93.08
2022-11-28T22:54:06.071Z,93.17
2022-11-28T22:56:36.421Z,92.37
2022-11-28T22:59:07.503Z,92.83
2022-11-28T23:01:35.819Z,92.56
2022-11-28T23:04:04.215Z,92.53
2022-11-28T23:06:34.589Z,91.69
2022-11-28T23:09:06.206Z,92.30
2022-11-28T23:11:36.084Z,92.28
2022-11-28T23:14:06.573Z,92.47
2022-11-28T23:16:36.473Z,92.81
2022-11-28T23:19:07.092Z,92.11
2022-11-28T23:21:37.946Z,92.20
2022-11-28T23:24:07.041Z,92.45
2022-11-28T23:26:35.935Z,93.03
2022-11-28T23:29:07.048Z,91.43
2022-11-28T23:31:36.993Z,91.67
2022-11-28T23:34:05.397Z,92.46
2022-11-28T23:36:41.485Z,92.18
2022-11-28T23:39:12.738Z,93.00
2022-11-28T23:41:41.393Z,91.33
2022-11-28T23:44:11.723Z,91.69
2022-11-28T23:46:40.330Z,91.58
2022-11-28T23:49:09.237Z,92.60
2022-11-28T23:51:37.977Z,91.76
2022-11-28T23:54:06.301Z,92.32
2022-11-28T23:56:36.121Z,92.71
2022-11-28T23:59:06.490Z,92.43
